Time,TemperatureF,DewpointF,PressureIn,WindDirection,WindDirectionDegrees,WindSpeedMPH,WindSpeedGustMPH,Humidity,HourlyPrecipIn,Conditions,Clouds,dailyrainin,SoftwareType,DateUTC
2013-11-17 00:01:00,52.7,53.5,29.96,North,-999,-999.0,-999.0,103,0.00,,,0.00,tws,2013-11-17 05:01:00,
2013-11-17 00:06:00,52.8,53.6,29.96,North,-999,-999.0,-999.0,103,0.00,,,0.00,tws,2013-11-17 05:06:00,
2013-11-17 00:11:00,52.8,53.7,29.96,North,-999,-999.0,-999.0,103,0.00,,,0.00,tws,2013-11-17 05:11:00,
2013-11-17 00:16:00,52.9,53.7,29.95,North,-999,-999.0,-999.0,103,0.00,,,0.00,tws,2013-11-17 05:16:00,
2013-11-17 00:21:00,53.0,53.8,29.95,North,-999,-999.0,-999.0,103,0.00,,,0.00,tws,2013-11-17 05:21:00,
2013-11-17 00:26:00,53.1,53.8,29.95,North,-999,-999.0,-999.0,102,0.00,,,0.00,tws,2013-11-17 05:26:00,
2013-11-17 00:31:00,53.2,53.9,29.95,North,-999,-999.0,-999.0,102,0.00,,,0.00,tws,2013-11-17 05:31:00,
2013-11-17 00:36:00,53.2,53.9,29.95,North,-999,-999.0,-999.0,102,0.00,,,0.00,tws,2013-11-17 05:36:00,
2013-11-17 00:41:00,53.1,53.8,29.95,North,-999,-999.0,-999.0,102,0.00,,,0.00,tws,2013-11-17 05:41:00,
2013-11-17 00:46:00,53.2,53.8,29.94,North,-999,-999.0,-999.0,102,0.00,,,0.00,tws,2013-11-17 05:46:00,
2013-11-17 00:51:00,53.1,53.7,29.94,North,-999,-999.0,-999.0,102,0.00,,,0.00,tws,2013-11-17 05:51:00,
2013-11-17 00:56:00,53.0,53.6,29.94,North,-999,-999.0,-999.0,102,0.00,,,0.00,tws,2013-11-17 05:56:00,
2013-11-17 01:01:00,53.1,53.7,29.94,North,-999,-999.0,-999.0,102,0.00,,,0.00,tws,2013-11-17 06:01:00,
2013-11-17 01:11:00,53.2,53.8,29.94,North,-999,-999.0,-999.0,102,0.00,,,0.00,tws,2013-11-17 06:11:00,
2013-11-17 01:16:00,53.2,53.9,29.94,North,-999,-999.0,-999.0,102,0.00,,,0.00,tws,2013-11-17 06:16:00,
2013-11-17 01:21:00,53.2,53.8,29.94,North,-999,-999.0,-999.0,102,0.00,,,0.00,tws,2013-11-17 06:21:00,
2013-11-17 01:26:00,53.2,53.9,29.94,North,-999,-999.0,-999.0,102,0.00,,,0.00,tws,2013-11-17 06:26:00,
2013-11-17 01:31:00,53.3,54.1,29.94,North,-999,-999.0,-999.0,102,0.00,,,0.00,tws,2013-11-17 06:31:00,
2013-11-17 01:36:00,53.3,54.1,29.93,North,-999,-999.0,-999.0,103,0.00,,,0.00,tws,2013-11-17 06:36:00,
2013-11-17 01:41:00,53.5,54.3,29.93,North,-999,-999.0,-999.0,102,0.00,,,0.00,tws,2013-11-17 06:41:00,
2013-11-17 01:46:00,53.5,54.3,29.93,North,-999,-999.0,-999.0,103,0.00,,,0.00,tws,2013-11-17 06:46:00,
2013-11-17 01:51:00,53.5,54.2,29.93,North,-999,-999.0,-999.0,102,0.00,,,0.00,tws,2013-11-17 06:51:00,
2013-11-17 01:56:00,53.5,54.2,29.93,North,-999,-999.0,-999.0,102,0.00,,,0.00,tws,2013-11-17 06:56:00,
2013-11-17 02:01:00,53.5,54.3,29.92,North,-999,-999.0,-999.0,103,0.00,,,0.00,tws,2013-11-17 07:01:00,
2013-11-17 02:06:00,53.4,54.2,29.93,North,-999,-999.0,-999.0,103,0.00,,,0.00,tws,2013-11-17 07:06:00,
2013-11-17 02:11:00,53.4,54.1,29.93,North,-999,-999.0,-999.0,102,0.00,,,0.00,tws,2013-11-17 07:11:00,
2013-11-17 02:16:00,53.4,54.2,29.93,North,-999,-999.0,-999.0,103,0.00,,,0.00,tws,2013-11-17 07:16:00,
2013-11-17 02:21:00,53.5,54.3,29.93,North,-999,-999.0,-999.0,103,0.00,,,0.00,tws,2013-11-17 07:21:00,
2013-11-17 02:26:00,53.5,54.3,29.93,North,-999,-999.0,-999.0,103,0.00,,,0.00,tws,2013-11-17 07:26:00,
2013-11-17 02:31:00,53.4,54.2,29.92,North,-999,-999.0,-999.0,103,0.00,,,0.00,tws,2013-11-17 07:31:00,
2013-11-17 02:36:00,53.4,54.2,29.92,North,-999,-999.0,-999.0,103,0.00,,,0.00,tws,2013-11-17 07:36:00,
2013-11-17 02:41:00,53.4,54.3,29.92,North,-999,-999.0,-999.0,103,0.00,,,0.00,tws,2013-11-17 07:41:00,
2013-11-17 02:46:00,53.5,54.3,29.92,North,-999,-999.0,-999.0,103,0.00,,,0.00,tws,2013-11-17 07:46:00,
2013-11-17 02:51:00,53.5,54.3,29.92,North,-999,-999.0,-999.0,103,0.00,,,0.00,tws,2013-11-17 07:51:00,
2013-11-17 02:56:00,53.5,54.3,29.92,North,-999,-999.0,-999.0,103,0.00,,,0.00,tws,2013-11-17 07:56:00,
2013-11-17 03:01:00,53.5,54.3,29.92,North,-999,-999.0,-999.0,103,0.00,,,0.00,tws,2013-11-17 08:01:00,
2013-11-17 03:06:00,53.5,54.4,29.91,North,-999,-999.0,-999.0,103,0.00,,,0.00,tws,2013-11-17 08:06:00,
2013-11-17 03:11:00,53.5,54.3,29.91,North,-999,-999.0,-999.0,103,0.00,,,0.00,tws,2013-11-17 08:11:00,
2013-11-17 03:16:00,53.6,54.4,29.91,North,-999,-999.0,-999.0,103,0.00,,,0.00,tws,2013-11-17 08:16:00,
2013-11-17 03:21:00,53.6,54.4,29.90,North,-999,-999.0,-999.0,103,0.00,,,0.00,tws,2013-11-17 08:21:00,
2013-11-17 03:26:00,53.6,54.4,29.90,North,-999,-999.0,-999.0,102,0.00,,,0.00,tws,2013-11-17 08:26:00,
2013-11-17 03:31:00,53.6,54.4,29.90,North,-999,-999.0,-999.0,102,0.00,,,0.00,tws,2013-11-17 08:31:00,
2013-11-17 03:36:00,53.6,54.4,29.89,North,-999,-999.0,-999.0,103,0.00,,,0.00,tws,2013-11-17 08:36:00,
2013-11-17 03:41:00,53.6,54.4,29.89,North,-999,-999.0,-999.0,102,0.00,,,0.00,tws,2013-11-17 08:41:00,
2013-11-17 03:46:00,53.6,54.3,29.90,North,-999,-999.0,-999.0,102,0.00,,,0.00,tws,2013-11-17 08:46:00,
2013-11-17 03:51:00,53.6,54.4,29.89,North,-999,-999.0,-999.0,102,0.00,,,0.00,tws,2013-11-17 08:51:00,
2013-11-17 03:56:00,53.7,54.4,29.89,North,-999,-999.0,-999.0,102,0.00,,,0.00,tws,2013-11-17 08:56:00,
2013-11-17 04:01:00,53.7,54.5,29.89,North,-999,-999.0,-999.0,102,0.00,,,0.00,tws,2013-11-17 09:01:00,
2013-11-17 04:06:00,53.7,54.4,29.89,North,-999,-999.0,-999.0,102,0.00,,,0.00,tws,2013-11-17 09:06:00,
2013-11-17 04:11:00,53.7,54.5,29.89,North,-999,-999.0,-999.0,102,0.00,,,0.00,tws,2013-11-17 09:11:00,
2013-11-17 04:16:00,53.7,54.4,29.89,North,-999,-999.0,-999.0,102,0.00,,,0.00,tws,2013-11-17 09:16:00,
2013-11-17 04:21:00,53.7,54.4,29.89,North,-999,-999.0,-999.0,102,0.00,,,0.00,tws,2013-11-17 09:21:00,
2013-11-17 04:26:00,53.7,54.4,29.89,North,-999,-999.0,-999.0,102,0.00,,,0.00,tws,2013-11-17 09:26:00,
2013-11-17 04:31:00,53.7,54.4,29.89,North,-999,-999.0,-999.0,102,0.00,,,0.00,tws,2013-11-17 09:31:00,
2013-11-17 04:36:00,53.7,54.3,29.89,North,-999,-999.0,-999.0,102,0.00,,,0.00,tws,2013-11-17 09:36:00,
2013-11-17 04:41:00,53.7,54.3,29.88,North,-999,-999.0,-999.0,102,0.00,,,0.00,tws,2013-11-17 09:41:00,
2013-11-17 04:46:00,53.7,54.3,29.88,North,-999,-999.0,-999.0,102,0.00,,,0.00,tws,2013-11-17 09:46:00,
2013-11-17 04:51:00,53.7,54.3,29.88,North,-999,-999.0,-999.0,102,0.00,,,0.00,tws,2013-11-17 09:51:00,
2013-11-17 04:56:00,53.7,54.3,29.88,North,-999,-999.0,-999.0,102,0.00,,,0.00,tws,2013-11-17 09:56:00,
2013-11-17 05:01:00,53.7,54.4,29.88,North,-999,-999.0,-999.0,102,0.00,,,0.00,tws,2013-11-17 10:01:00,
2013-11-17 05:06:00,53.7,54.4,29.88,North,-999,-999.0,-999.0,102,0.00,,,0.00,tws,2013-11-17 10:06:00,
2013-11-17 05:11:00,53.8,54.5,29.88,North,-999,-999.0,-999.0,102,0.00,,,0.00,tws,2013-11-17 10:11:00,
2013-11-17 05:16:00,53.8,54.5,29.87,North,-999,-999.0,-999.0,102,0.00,,,0.00,tws,2013-11-17 10:16:00,
2013-11-17 05:21:00,53.8,54.5,29.88,North,-999,-999.0,-999.0,102,0.00,,,0.00,tws,2013-11-17 10:21:00,
2013-11-17 05:26:00,53.8,54.5,29.88,North,-999,-999.0,-999.0,102,0.00,,,0.00,tws,2013-11-17 10:26:00,
2013-11-17 05:31:00,53.8,54.5,29.87,North,-999,-999.0,-999.0,102,0.00,,,0.00,tws,2013-11-17 10:31:00,
2013-11-17 05:36:00,53.7,54.4,29.87,North,-999,-999.0,-999.0,102,0.00,,,0.00,tws,2013-11-17 10:36:00,
2013-11-17 05:41:00,53.7,54.4,29.87,North,-999,-999.0,-999.0,102,0.00,,,0.00,tws,2013-11-17 10:41:00,
2013-11-17 05:46:00,53.8,54.5,29.87,North,-999,-999.0,-999.0,102,0.00,,,0.00,tws,2013-11-17 10:46:00,
2013-11-17 05:51:00,53.8,54.6,29.87,North,-999,-999.0,-999.0,103,0.00,,,0.00,tws,2013-11-17 10:51:00,
2013-11-17 05:56:00,53.9,54.7,29.87,North,-999,-999.0,-999.0,102,0.00,,,0.00,tws,2013-11-17 10:56:00,
2013-11-17 06:01:00,54.0,54.8,29.87,North,-999,-999.0,-999.0,102,0.00,,,0.00,tws,2013-11-17 11:01:00,
2013-11-17 06:06:00,54.1,54.8,29.87,North,-999,-999.0,-999.0,102,0.00,,,0.00,tws,2013-11-17 11:06:00,
2013-11-17 06:11:00,54.3,55.0,29.87,North,-999,-999.0,-999.0,102,0.00,,,0.00,tws,2013-11-17 11:11:00,
2013-11-17 06:16:00,54.4,55.1,29.87,North,-999,-999.0,-999.0,102,0.00,,,0.00,tws,2013-11-17 11:16:00,
2013-11-17 06:21:00,54.4,55.1,29.87,North,-999,-999.0,-999.0,102,0.00,,,0.00,tws,2013-11-17 11:21:00,
2013-11-17 06:26:00,54.5,55.1,29.87,North,-999,-999.0,-999.0,102,0.00,,,0.00,tws,2013-11-17 11:26:00,
2013-11-17 06:31:00,54.5,55.0,29.87,North,-999,-999.0,-999.0,101,0.00,,,0.00,tws,2013-11-17 11:31:00,
2013-11-17 06:36:00,54.3,54.8,29.88,North,-999,-999.0,-999.0,101,0.00,,,0.00,tws,2013-11-17 11:36:00,
2013-11-17 06:41:00,54.2,54.7,29.88,North,-999,-999.0,-999.0,101,0.00,,,0.00,tws,2013-11-17 11:41:00,
2013-11-17 06:46:00,54.2,54.7,29.87,North,-999,-999.0,-999.0,101,0.00,,,0.00,tws,2013-11-17 11:46:00,
2013-11-17 06:51:00,54.0,54.6,29.87,North,-999,-999.0,-999.0,102,0.00,,,0.00,tws,2013-11-17 11:51:00,
2013-11-17 06:56:00,54.0,54.5,29.87,North,-999,-999.0,-999.0,102,0.00,,,0.00,tws,2013-11-17 11:56:00,
2013-11-17 07:01:00,53.9,54.5,29.88,North,-999,-999.0,-999.0,102,0.00,,,0.00,tws,2013-11-17 12:01:00,
2013-11-17 07:06:00,53.9,54.5,29.88,North,-999,-999.0,-999.0,102,0.00,,,0.00,tws,2013-11-17 12:06:00,
2013-11-17 07:11:00,53.8,54.5,29.88,North,-999,-999.0,-999.0,102,0.00,,,0.00,tws,2013-11-17 12:11:00,
2013-11-17 07:16:00,53.8,54.5,29.88,North,-999,-999.0,-999.0,102,0.00,,,0.00,tws,2013-11-17 12:16:00,
2013-11-17 07:21:00,53.9,54.6,29.88,North,-999,-999.0,-999.0,102,0.00,,,0.00,tws,2013-11-17 12:21:00,
2013-11-17 07:26:00,53.9,54.6,29.88,North,-999,-999.0,-999.0,102,0.00,,,0.00,tws,2013-11-17 12:26:00,
2013-11-17 07:31:00,54.1,54.8,29.88,North,-999,-999.0,-999.0,102,0.00,,,0.00,tws,2013-11-17 12:31:00,
2013-11-17 07:36:00,54.2,55.0,29.89,North,-999,-999.0,-999.0,102,0.00,,,0.00,tws,2013-11-17 12:36:00,
2013-11-17 07:41:00,54.2,54.9,29.89,North,-999,-999.0,-999.0,102,0.00,,,0.00,tws,2013-11-17 12:41:00,
2013-11-17 07:46:00,54.3,54.9,29.89,North,-999,-999.0,-999.0,102,0.00,,,0.00,tws,2013-11-17 12:46:00,
2013-11-17 07:51:00,54.3,55.0,29.89,North,-999,-999.0,-999.0,102,0.00,,,0.00,tws,2013-11-17 12:51:00,
2013-11-17 07:56:00,54.5,55.1,29.89,North,-999,-999.0,-999.0,102,0.00,,,0.00,tws,2013-11-17 12:56:00,
2013-11-17 08:01:00,54.5,55.2,29.89,North,-999,-999.0,-999.0,102,0.00,,,0.00,tws,2013-11-17 13:01:00,
2013-11-17 08:06:00,54.5,55.1,29.89,North,-999,-999.0,-999.0,102,0.00,,,0.00,tws,2013-11-17 13:06:00,
2013-11-17 08:11:00,54.6,55.3,29.89,North,-999,-999.0,-999.0,102,0.00,,,0.00,tws,2013-11-17 13:11:00,
2013-11-17 08:16:00,54.7,55.4,29.89,North,-999,-999.0,-999.0,102,0.00,,,0.00,tws,2013-11-17 13:16:00,
2013-11-17 08:21:00,54.8,55.5,29.89,North,-999,-999.0,-999.0,102,0.00,,,0.00,tws,2013-11-17 13:21:00,
2013-11-17 08:26:00,55.0,55.6,29.89,North,-999,-999.0,-999.0,102,0.00,,,0.00,tws,2013-11-17 13:26:00,
2013-11-17 08:31:00,55.1,55.7,29.89,North,-999,-999.0,-999.0,102,0.00,,,0.00,tws,2013-11-17 13:31:00,
2013-11-17 08:36:00,55.3,55.9,29.88,North,-999,-999.0,-999.0,102,0.00,,,0.00,tws,2013-11-17 13:36:00,
2013-11-17 08:41:00,55.4,55.9,29.89,North,-999,-999.0,-999.0,102,0.00,,,0.00,tws,2013-11-17 13:41:00,
2013-11-17 08:46:00,55.5,56.1,29.88,North,-999,-999.0,-999.0,102,0.00,,,0.00,tws,2013-11-17 13:46:00,
2013-11-17 08:51:00,55.7,56.3,29.88,North,-999,-999.0,-999.0,101,0.00,,,0.00,tws,2013-11-17 13:51:00,
2013-11-17 08:56:00,55.9,56.4,29.88,North,-999,-999.0,-999.0,101,0.00,,,0.00,tws,2013-11-17 13:56:00,
2013-11-17 09:01:00,56.1,56.5,29.88,North,-999,-999.0,-999.0,101,0.00,,,0.00,tws,2013-11-17 14:01:00,
2013-11-17 09:06:00,56.3,56.7,29.88,North,-999,-999.0,-999.0,101,0.00,,,0.00,tws,2013-11-17 14:06:00,
2013-11-17 09:11:00,56.5,56.9,29.88,North,-999,-999.0,-999.0,101,0.00,,,0.00,tws,2013-11-17 14:11:00,
2013-11-17 09:16:00,56.8,57.1,29.88,North,-999,-999.0,-999.0,101,0.00,,,0.00,tws,2013-11-17 14:16:00,
2013-11-17 09:21:00,57.0,57.3,29.88,North,-999,-999.0,-999.0,100,0.00,,,0.00,tws,2013-11-17 14:21:00,
2013-11-17 09:26:00,57.3,57.4,29.88,North,-999,-999.0,-999.0,100,0.00,,,0.00,tws,2013-11-17 14:26:00,
2013-11-17 09:31:00,57.6,57.5,29.88,North,-999,-999.0,-999.0,99,0.00,,,0.00,tws,2013-11-17 14:31:00,
2013-11-17 09:36:00,57.9,57.6,29.87,North,-999,-999.0,-999.0,99,0.00,,,0.00,tws,2013-11-17 14:36:00,
2013-11-17 09:41:00,58.2,57.7,29.88,North,-999,-999.0,-999.0,98,0.00,,,0.00,tws,2013-11-17 14:41:00,
2013-11-17 09:46:00,58.3,57.7,29.88,North,-999,-999.0,-999.0,97,0.00,,,0.00,tws,2013-11-17 14:46:00,
2013-11-17 09:51:00,58.4,57.7,29.89,North,-999,-999.0,-999.0,97,0.00,,,0.00,tws,2013-11-17 14:51:00,
2013-11-17 09:56:00,58.6,57.6,29.89,North,-999,-999.0,-999.0,96,0.00,,,0.00,tws,2013-11-17 14:56:00,
2013-11-17 10:01:00,58.8,57.5,29.89,North,-999,-999.0,-999.0,95,0.00,,,0.00,tws,2013-11-17 15:01:00,
2013-11-17 10:06:00,59.0,57.4,29.89,North,-999,-999.0,-999.0,94,0.00,,,0.00,tws,2013-11-17 15:06:00,
2013-11-17 10:11:00,59.3,57.6,29.88,North,-999,-999.0,-999.0,94,0.00,,,0.00,tws,2013-11-17 15:11:00,
2013-11-17 10:16:00,59.7,57.7,29.89,North,-999,-999.0,-999.0,93,0.00,,,0.00,tws,2013-11-17 15:16:00,
2013-11-17 10:21:00,60.1,57.9,29.89,North,-999,-999.0,-999.0,92,0.00,,,0.00,tws,2013-11-17 15:21:00,
2013-11-17 10:26:00,60.4,57.6,29.88,North,-999,-999.0,-999.0,90,0.00,,,0.00,tws,2013-11-17 15:26:00,
2013-11-17 10:31:00,60.3,57.2,29.88,North,-999,-999.0,-999.0,89,0.00,,,0.00,tws,2013-11-17 15:31:00,
2013-11-17 10:36:00,60.2,57.2,29.88,North,-999,-999.0,-999.0,89,0.00,,,0.00,tws,2013-11-17 15:36:00,
2013-11-17 10:41:00,60.2,57.3,29.88,North,-999,-999.0,-999.0,89,0.00,,,0.00,tws,2013-11-17 15:41:00,
2013-11-17 10:46:00,60.1,57.2,29.88,North,-999,-999.0,-999.0,89,0.00,,,0.00,tws,2013-11-17 15:46:00,
2013-11-17 10:51:00,60.1,57.0,29.87,North,-999,-999.0,-999.0,89,0.00,,,0.00,tws,2013-11-17 15:51:00,
2013-11-17 10:56:00,60.1,57.0,29.87,North,-999,-999.0,-999.0,89,0.00,,,0.00,tws,2013-11-17 15:56:00,
2013-11-17 11:01:00,60.1,57.1,29.87,North,-999,-999.0,-999.0,89,0.00,,,0.00,tws,2013-11-17 16:01:00,
2013-11-17 11:06:00,60.1,56.8,29.87,North,-999,-999.0,-999.0,88,0.00,,,0.00,tws,2013-11-17 16:06:00,
2013-11-17 11:11:00,60.1,56.8,29.86,North,-999,-999.0,-999.0,88,0.00,,,0.00,tws,2013-11-17 16:11:00,
2013-11-17 11:16:00,60.1,56.5,29.86,North,-999,-999.0,-999.0,87,0.00,,,0.00,tws,2013-11-17 16:16:00,
2013-11-17 11:21:00,59.9,56.4,29.87,North,-999,-999.0,-999.0,88,0.00,,,0.00,tws,2013-11-17 16:21:00,
2013-11-17 11:26:00,59.8,56.3,29.87,North,-999,-999.0,-999.0,88,0.00,,,0.00,tws,2013-11-17 16:26:00,
2013-11-17 11:31:00,59.6,56.2,29.87,North,-999,-999.0,-999.0,88,0.00,,,0.00,tws,2013-11-17 16:31:00,
2013-11-17 11:36:00,59.4,56.0,29.86,North,-999,-999.0,-999.0,88,0.00,,,0.00,tws,2013-11-17 16:36:00,
2013-11-17 11:41:00,59.2,56.0,29.86,North,-999,-999.0,-999.0,88,0.00,,,0.00,tws,2013-11-17 16:41:00,
2013-11-17 11:46:00,59.1,55.9,29.85,North,-999,-999.0,-999.0,89,0.00,,,0.00,tws,2013-11-17 16:46:00,
2013-11-17 11:51:00,59.0,55.9,29.85,North,-999,-999.0,-999.0,89,0.00,,,0.00,tws,2013-11-17 16:51:00,
2013-11-17 11:56:00,58.8,55.9,29.85,North,-999,-999.0,-999.0,89,0.00,,,0.00,tws,2013-11-17 16:56:00,
2013-11-17 12:01:00,58.7,55.9,29.84,North,-999,-999.0,-999.0,90,0.00,,,0.00,tws,2013-11-17 17:01:00,
2013-11-17 12:06:00,58.7,55.9,29.84,North,-999,-999.0,-999.0,90,0.00,,,0.00,tws,2013-11-17 17:06:00,
2013-11-17 12:11:00,58.6,56.0,29.84,North,-999,-999.0,-999.0,90,0.00,,,0.00,tws,2013-11-17 17:11:00,
2013-11-17 12:16:00,58.6,56.1,29.83,North,-999,-999.0,-999.0,91,0.00,,,0.00,tws,2013-11-17 17:16:00,
2013-11-17 12:21:00,58.7,56.1,29.82,North,-999,-999.0,-999.0,91,0.00,,,0.00,tws,2013-11-17 17:21:00,
2013-11-17 12:26:00,58.7,56.2,29.82,North,-999,-999.0,-999.0,91,0.00,,,0.00,tws,2013-11-17 17:26:00,
2013-11-17 12:31:00,58.8,56.4,29.82,North,-999,-999.0,-999.0,91,0.00,,,0.00,tws,2013-11-17 17:31:00,
2013-11-17 12:36:00,58.8,56.5,29.82,North,-999,-999.0,-999.0,91,0.00,,,0.00,tws,2013-11-17 17:36:00,
2013-11-17 12:41:00,58.8,56.4,29.82,North,-999,-999.0,-999.0,91,0.00,,,0.00,tws,2013-11-17 17:41:00,
2013-11-17 12:46:00,58.7,56.3,29.82,North,-999,-999.0,-999.0,91,0.00,,,0.00,tws,2013-11-17 17:46:00,
2013-11-17 12:51:00,58.6,56.2,29.82,North,-999,-999.0,-999.0,91,0.00,,,0.00,tws,2013-11-17 17:51:00,
2013-11-17 12:56:00,58.4,56.1,29.82,North,-999,-999.0,-999.0,91,0.00,,,0.00,tws,2013-11-17 17:56:00,
2013-11-17 13:01:00,58.1,56.0,29.82,North,-999,-999.0,-999.0,92,0.00,,,0.00,tws,2013-11-17 18:01:00,
2013-11-17 13:06:00,57.9,56.0,29.81,North,-999,-999.0,-999.0,93,0.00,,,0.00,tws,2013-11-17 18:06:00,
2013-11-17 13:11:00,57.7,55.9,29.81,North,-999,-999.0,-999.0,93,0.00,,,0.00,tws,2013-11-17 18:11:00,
2013-11-17 13:16:00,57.6,56.1,29.81,North,-999,-999.0,-999.0,94,0.00,,,0.00,tws,2013-11-17 18:16:00,
2013-11-17 13:21:00,57.3,56.0,29.80,North,-999,-999.0,-999.0,95,0.00,,,0.00,tws,2013-11-17 18:21:00,
2013-11-17 13:26:00,57.0,56.1,29.80,North,-999,-999.0,-999.0,96,0.00,,,0.00,tws,2013-11-17 18:26:00,
2013-11-17 13:31:00,56.8,56.0,29.80,North,-999,-999.0,-999.0,97,0.00,,,0.00,tws,2013-11-17 18:31:00,
2013-11-17 13:36:00,56.4,55.9,29.80,North,-999,-999.0,-999.0,98,0.00,,,0.00,tws,2013-11-17 18:36:00,
2013-11-17 13:41:00,56.2,55.9,29.80,North,-999,-999.0,-999.0,98,0.00,,,0.00,tws,2013-11-17 18:41:00,
2013-11-17 13:46:00,56.1,55.9,29.79,North,-999,-999.0,-999.0,99,0.00,,,0.00,tws,2013-11-17 18:46:00,
2013-11-17 13:56:00,55.9,55.9,29.79,North,-999,-999.0,-999.0,99,0.00,,,0.00,tws,2013-11-17 18:56:00,
2013-11-17 14:01:00,55.9,55.9,29.79,North,-999,-999.0,-999.0,100,0.00,,,0.00,tws,2013-11-17 19:01:00,
2013-11-17 14:06:00,55.9,56.0,29.79,North,-999,-999.0,-999.0,100,0.00,,,0.00,tws,2013-11-17 19:06:00,
2013-11-17 14:11:00,55.8,56.1,29.79,North,-999,-999.0,-999.0,100,0.00,,,0.00,tws,2013-11-17 19:11:00,
2013-11-17 14:16:00,55.8,56.1,29.79,North,-999,-999.0,-999.0,101,0.00,,,0.00,tws,2013-11-17 19:16:00,
2013-11-17 14:21:00,55.8,56.2,29.79,North,-999,-999.0,-999.0,101,0.00,,,0.00,tws,2013-11-17 19:21:00,
2013-11-17 14:26:00,55.8,56.2,29.79,North,-999,-999.0,-999.0,101,0.00,,,0.00,tws,2013-11-17 19:26:00,
2013-11-17 14:31:00,55.8,56.2,29.79,North,-999,-999.0,-999.0,101,0.00,,,0.00,tws,2013-11-17 19:31:00,
2013-11-17 14:36:00,55.8,56.3,29.79,North,-999,-999.0,-999.0,101,0.00,,,0.00,tws,2013-11-17 19:36:00,
2013-11-17 14:41:00,55.8,56.2,29.78,North,-999,-999.0,-999.0,101,0.00,,,0.00,tws,2013-11-17 19:41:00,
2013-11-17 14:46:00,55.8,56.3,29.78,North,-999,-999.0,-999.0,101,0.00,,,0.00,tws,2013-11-17 19:46:00,
2013-11-17 14:51:00,55.8,56.3,29.77,North,-999,-999.0,-999.0,101,0.00,,,0.00,tws,2013-11-17 19:51:00,
2013-11-17 14:56:00,55.8,56.3,29.77,North,-999,-999.0,-999.0,101,0.00,,,0.00,tws,2013-11-17 19:56:00,
2013-11-17 15:06:00,55.8,56.4,29.77,North,-999,-999.0,-999.0,102,0.00,,,0.00,tws,2013-11-17 20:06:00,
2013-11-17 15:11:00,55.8,56.4,29.77,North,-999,-999.0,-999.0,102,0.00,,,0.00,tws,2013-11-17 20:11:00,
2013-11-17 15:16:00,55.7,56.3,29.77,North,-999,-999.0,-999.0,102,0.00,,,0.00,tws,2013-11-17 20:16:00,
2013-11-17 15:21:00,55.7,56.4,29.77,North,-999,-999.0,-999.0,102,0.00,,,0.00,tws,2013-11-17 20:21:00,
2013-11-17 15:26:00,55.7,56.3,29.77,North,-999,-999.0,-999.0,102,0.00,,,0.00,tws,2013-11-17 20:26:00,
2013-11-17 15:31:00,55.6,56.3,29.77,North,-999,-999.0,-999.0,102,0.00,,,0.00,tws,2013-11-17 20:31:00,
2013-11-17 15:36:00,55.5,56.2,29.76,North,-999,-999.0,-999.0,102,0.00,,,0.00,tws,2013-11-17 20:36:00,
2013-11-17 15:41:00,55.5,56.2,29.76,North,-999,-999.0,-999.0,102,0.00,,,0.00,tws,2013-11-17 20:41:00,
2013-11-17 15:46:00,55.4,56.2,29.76,North,-999,-999.0,-999.0,103,0.00,,,0.00,tws,2013-11-17 20:46:00,
2013-11-17 15:51:00,55.4,56.2,29.77,North,-999,-999.0,-999.0,102,0.00,,,0.00,tws,2013-11-17 20:51:00,
2013-11-17 15:56:00,55.4,56.2,29.76,North,-999,-999.0,-999.0,102,0.00,,,0.00,tws,2013-11-17 20:56:00,
2013-11-17 16:01:00,55.4,56.2,29.76,North,-999,-999.0,-999.0,103,0.00,,,0.00,tws,2013-11-17 21:01:00,
2013-11-17 16:06:00,55.3,56.1,29.76,North,-999,-999.0,-999.0,103,0.00,,,0.00,tws,2013-11-17 21:06:00,
2013-11-17 16:11:00,55.2,56.1,29.76,North,-999,-999.0,-999.0,103,0.00,,,0.00,tws,2013-11-17 21:11:00,
2013-11-17 16:16:00,55.2,57.5,29.74,North,-999,-999.0,-999.0,109,0.00,,,0.00,tws,2013-11-17 21:16:00,
2013-11-17 16:21:00,55.2,56.1,29.74,North,-999,-999.0,-999.0,103,0.00,,,0.00,tws,2013-11-17 21:21:00,
2013-11-17 16:26:00,55.2,56.1,29.74,North,-999,-999.0,-999.0,103,0.00,,,0.00,tws,2013-11-17 21:26:00,
2013-11-17 16:31:00,55.2,56.2,29.75,North,-999,-999.0,-999.0,103,0.00,,,0.00,tws,2013-11-17 21:31:00,
2013-11-17 16:36:00,55.2,56.2,29.75,North,-999,-999.0,-999.0,103,0.00,,,0.00,tws,2013-11-17 21:36:00,
2013-11-17 16:41:00,55.3,56.3,29.75,North,-999,-999.0,-999.0,103,0.00,,,0.00,tws,2013-11-17 21:41:00,
2013-11-17 16:46:00,55.3,56.3,29.75,North,-999,-999.0,-999.0,103,0.00,,,0.00,tws,2013-11-17 21:46:00,
2013-11-17 16:51:00,55.3,56.3,29.75,North,-999,-999.0,-999.0,103,0.00,,,0.00,tws,2013-11-17 21:51:00,
2013-11-17 16:56:00,55.3,56.4,29.76,North,-999,-999.0,-999.0,104,0.00,,,0.00,tws,2013-11-17 21:56:00,
2013-11-17 17:01:00,55.3,56.3,29.75,North,-999,-999.0,-999.0,103,0.00,,,0.00,tws,2013-11-17 22:01:00,
2013-11-17 17:06:00,55.2,56.3,29.75,North,-999,-999.0,-999.0,104,0.00,,,0.00,tws,2013-11-17 22:06:00,
2013-11-17 17:11:00,55.2,56.3,29.75,North,-999,-999.0,-999.0,104,0.00,,,0.00,tws,2013-11-17 22:11:00,
2013-11-17 17:16:00,55.2,56.3,29.75,North,-999,-999.0,-999.0,104,0.00,,,0.00,tws,2013-11-17 22:16:00,
2013-11-17 17:21:00,55.2,56.3,29.74,North,-999,-999.0,-999.0,104,0.00,,,0.00,tws,2013-11-17 22:21:00,
2013-11-17 17:26:00,55.2,56.3,29.74,North,-999,-999.0,-999.0,104,0.00,,,0.00,tws,2013-11-17 22:26:00,
2013-11-17 17:31:00,55.2,56.3,29.74,North,-999,-999.0,-999.0,104,0.00,,,0.00,tws,2013-11-17 22:31:00,
2013-11-17 17:36:00,55.1,56.3,29.74,North,-999,-999.0,-999.0,104,0.00,,,0.00,tws,2013-11-17 22:36:00,
2013-11-17 17:41:00,55.1,56.2,29.74,North,-999,-999.0,-999.0,104,0.00,,,0.00,tws,2013-11-17 22:41:00,
2013-11-17 17:46:00,55.1,56.3,29.73,North,-999,-999.0,-999.0,104,0.00,,,0.00,tws,2013-11-17 22:46:00,
2013-11-17 17:51:00,55.1,56.3,29.74,North,-999,-999.0,-999.0,104,0.00,,,0.00,tws,2013-11-17 22:51:00,
2013-11-17 17:56:00,55.1,56.3,29.73,North,-999,-999.0,-999.0,104,0.00,,,0.00,tws,2013-11-17 22:56:00,
2013-11-17 18:01:00,55.1,56.2,29.73,North,-999,-999.0,-999.0,104,0.00,,,0.00,tws,2013-11-17 23:01:00,
2013-11-17 18:06:00,55.1,56.3,29.73,North,-999,-999.0,-999.0,104,0.00,,,0.00,tws,2013-11-17 23:06:00,
2013-11-17 18:11:00,55.1,56.3,29.73,North,-999,-999.0,-999.0,104,0.00,,,0.00,tws,2013-11-17 23:11:00,
2013-11-17 18:16:00,55.2,56.4,29.73,North,-999,-999.0,-999.0,104,0.00,,,0.00,tws,2013-11-17 23:16:00,
2013-11-17 18:21:00,55.2,56.5,29.73,North,-999,-999.0,-999.0,104,0.00,,,0.00,tws,2013-11-17 23:21:00,
2013-11-17 18:26:00,55.3,56.5,29.74,North,-999,-999.0,-999.0,104,0.00,,,0.00,tws,2013-11-17 23:26:00,
2013-11-17 18:31:00,55.2,56.5,29.74,North,-999,-999.0,-999.0,104,0.00,,,0.00,tws,2013-11-17 23:31:00,
2013-11-17 18:36:00,55.3,56.5,29.73,North,-999,-999.0,-999.0,104,0.00,,,0.00,tws,2013-11-17 23:36:00,
2013-11-17 18:41:00,55.3,56.6,29.73,North,-999,-999.0,-999.0,104,0.00,,,0.00,tws,2013-11-17 23:41:00,
2013-11-17 18:46:00,55.3,56.6,29.73,North,-999,-999.0,-999.0,105,0.00,,,0.00,tws,2013-11-17 23:46:00,
2013-11-17 18:51:00,55.4,56.7,29.73,North,-999,-999.0,-999.0,105,0.00,,,0.00,tws,2013-11-17 23:51:00,
2013-11-17 18:56:00,55.4,56.7,29.73,North,-999,-999.0,-999.0,104,0.00,,,0.00,tws,2013-11-17 23:56:00,
2013-11-17 19:01:00,55.4,56.7,29.72,North,-999,-999.0,-999.0,105,0.00,,,0.00,tws,2013-11-18 00:01:00,
2013-11-17 19:06:00,55.4,56.7,29.72,North,-999,-999.0,-999.0,104,0.00,,,0.00,tws,2013-11-18 00:06:00,
2013-11-17 19:11:00,55.4,56.7,29.72,North,-999,-999.0,-999.0,104,0.00,,,0.00,tws,2013-11-18 00:11:00,
2013-11-17 19:21:00,55.4,56.8,29.72,North,-999,-999.0,-999.0,105,0.00,,,0.00,tws,2013-11-18 00:21:00,
2013-11-17 19:26:00,55.6,57.1,29.71,North,-999,-999.0,-999.0,105,0.00,,,0.00,tws,2013-11-18 00:26:00,
2013-11-17 19:31:00,55.8,57.2,29.72,North,-999,-999.0,-999.0,105,0.00,,,0.00,tws,2013-11-18 00:31:00,
2013-11-17 19:36:00,55.8,57.2,29.72,North,-999,-999.0,-999.0,105,0.00,,,0.00,tws,2013-11-18 00:36:00,
2013-11-17 19:41:00,55.9,57.2,29.71,North,-999,-999.0,-999.0,105,0.00,,,0.00,tws,2013-11-18 00:41:00,
2013-11-17 19:46:00,56.0,57.4,29.71,North,-999,-999.0,-999.0,105,0.00,,,0.00,tws,2013-11-18 00:46:00,
2013-11-17 19:51:00,56.0,57.4,29.71,North,-999,-999.0,-999.0,105,0.00,,,0.00,tws,2013-11-18 00:51:00,
2013-11-17 19:56:00,56.0,57.3,29.71,North,-999,-999.0,-999.0,105,0.00,,,0.00,tws,2013-11-18 00:56:00,
2013-11-17 20:01:00,56.0,57.4,29.71,North,-999,-999.0,-999.0,105,0.00,,,0.00,tws,2013-11-18 01:01:00,
2013-11-17 20:06:00,55.9,57.3,29.70,North,-999,-999.0,-999.0,105,0.00,,,0.00,tws,2013-11-18 01:06:00,
2013-11-17 20:11:00,55.9,57.3,29.70,North,-999,-999.0,-999.0,105,0.00,,,0.00,tws,2013-11-18 01:11:00,
2013-11-17 20:16:00,55.9,57.3,29.70,North,-999,-999.0,-999.0,105,0.00,,,0.00,tws,2013-11-18 01:16:00,
2013-11-17 20:21:00,56.0,57.3,29.70,North,-999,-999.0,-999.0,105,0.00,,,0.00,tws,2013-11-18 01:21:00,
2013-11-17 20:26:00,56.0,57.4,29.70,North,-999,-999.0,-999.0,105,0.00,,,0.00,tws,2013-11-18 01:26:00,
2013-11-17 20:31:00,56.0,57.5,29.70,North,-999,-999.0,-999.0,105,99.99,,,99.99,tws,2013-11-18 01:31:00,
2013-11-17 20:36:00,56.2,57.6,29.70,North,-999,-999.0,-999.0,105,-99.99,,,0.00,tws,2013-11-18 01:36:00,
2013-11-17 20:41:00,56.2,57.6,29.70,North,-999,-999.0,-999.0,105,0.00,,,0.00,tws,2013-11-18 01:41:00,
2013-11-17 20:46:00,56.2,57.6,29.70,North,-999,-999.0,-999.0,105,0.00,,,0.00,tws,2013-11-18 01:46:00,
2013-11-17 20:51:00,56.2,57.6,29.70,North,-999,-999.0,-999.0,105,0.00,,,0.00,tws,2013-11-18 01:51:00,
2013-11-17 20:56:00,56.1,57.5,29.70,North,-999,-999.0,-999.0,105,0.00,,,0.00,tws,2013-11-18 01:56:00,
2013-11-17 21:01:00,56.1,57.5,29.70,North,-999,-999.0,-999.0,105,0.00,,,0.00,tws,2013-11-18 02:01:00,
2013-11-17 21:06:00,56.1,57.5,29.69,North,-999,-999.0,-999.0,105,0.00,,,0.00,tws,2013-11-18 02:06:00,
2013-11-17 21:11:00,56.0,57.4,29.69,North,-999,-999.0,-999.0,105,0.00,,,0.00,tws,2013-11-18 02:11:00,
2013-11-17 21:16:00,56.0,57.5,29.69,North,-999,-999.0,-999.0,105,0.00,,,0.00,tws,2013-11-18 02:16:00,
2013-11-17 21:21:00,56.1,57.5,29.69,North,-999,-999.0,-999.0,105,0.00,,,0.00,tws,2013-11-18 02:21:00,
2013-11-17 21:26:00,56.0,57.4,29.69,North,-999,-999.0,-999.0,105,0.00,,,0.00,tws,2013-11-18 02:26:00,
2013-11-17 21:31:00,56.1,57.5,29.69,North,-999,-999.0,-999.0,105,0.00,,,0.00,tws,2013-11-18 02:31:00,
2013-11-17 21:36:00,56.1,57.6,29.69,North,-999,-999.0,-999.0,105,0.00,,,0.00,tws,2013-11-18 02:36:00,
2013-11-17 21:41:00,56.1,57.5,29.69,North,-999,-999.0,-999.0,105,0.00,,,0.00,tws,2013-11-18 02:41:00,
2013-11-17 21:51:00,56.3,57.8,29.69,North,-999,-999.0,-999.0,105,0.00,,,0.00,tws,2013-11-18 02:51:00,
2013-11-17 21:56:00,56.5,58.0,29.69,North,-999,-999.0,-999.0,105,0.00,,,0.00,tws,2013-11-18 02:56:00,
2013-11-17 22:01:00,56.6,58.1,29.69,North,-999,-999.0,-999.0,105,0.00,,,0.00,tws,2013-11-18 03:01:00,
2013-11-17 22:06:00,56.7,58.2,29.69,North,-999,-999.0,-999.0,105,0.00,,,0.00,tws,2013-11-18 03:06:00,
2013-11-17 22:11:00,56.7,58.2,29.69,North,-999,-999.0,-999.0,105,0.00,,,0.00,tws,2013-11-18 03:11:00,
2013-11-17 22:16:00,56.9,58.5,29.69,North,-999,-999.0,-999.0,105,0.00,,,0.00,tws,2013-11-18 03:16:00,
2013-11-17 22:21:00,57.1,58.6,29.69,North,-999,-999.0,-999.0,105,0.00,,,0.00,tws,2013-11-18 03:21:00,
2013-11-17 22:26:00,57.2,58.6,29.68,North,-999,-999.0,-999.0,105,0.00,,,0.00,tws,2013-11-18 03:26:00,
2013-11-17 22:36:00,57.4,58.9,29.67,North,-999,-999.0,-999.0,105,0.00,,,0.00,tws,2013-11-18 03:36:00,
2013-11-17 22:41:00,57.5,59.0,29.67,North,-999,-999.0,-999.0,105,0.00,,,0.00,tws,2013-11-18 03:41:00,
2013-11-17 22:46:00,57.6,59.1,29.67,North,-999,-999.0,-999.0,105,0.00,,,0.00,tws,2013-11-18 03:46:00,
2013-11-17 22:51:00,57.7,59.1,29.67,North,-999,-999.0,-999.0,105,0.00,,,0.00,tws,2013-11-18 03:51:00,
2013-11-17 22:56:00,57.7,59.2,29.67,North,-999,-999.0,-999.0,105,0.00,,,0.00,tws,2013-11-18 03:56:00,
2013-11-17 23:01:00,57.8,59.2,29.67,North,-999,-999.0,-999.0,105,0.00,,,0.00,tws,2013-11-18 04:01:00,
2013-11-17 23:06:00,57.8,59.3,29.66,North,-999,-999.0,-999.0,105,0.00,,,0.00,tws,2013-11-18 04:06:00,
2013-11-17 23:11:00,57.9,59.4,29.66,North,-999,-999.0,-999.0,105,0.00,,,0.00,tws,2013-11-18 04:11:00,
2013-11-17 23:16:00,58.0,59.5,29.66,North,-999,-999.0,-999.0,105,0.00,,,0.00,tws,2013-11-18 04:16:00,
2013-11-17 23:21:00,58.0,59.5,29.66,North,-999,-999.0,-999.0,105,0.00,,,0.00,tws,2013-11-18 04:21:00,
2013-11-17 23:26:00,58.0,59.4,29.65,North,-999,-999.0,-999.0,105,0.00,,,0.00,tws,2013-11-18 04:26:00,
2013-11-17 23:31:00,58.0,59.5,29.65,North,-999,-999.0,-999.0,105,0.00,,,0.00,tws,2013-11-18 04:31:00,
2013-11-17 23:36:00,58.0,59.4,29.65,North,-999,-999.0,-999.0,105,0.00,,,0.00,tws,2013-11-18 04:36:00,
2013-11-17 23:41:00,57.9,59.3,29.64,North,-999,-999.0,-999.0,105,0.00,,,0.00,tws,2013-11-18 04:41:00,
2013-11-17 23:46:00,57.8,59.3,29.64,North,-999,-999.0,-999.0,105,0.00,,,0.00,tws,2013-11-18 04:46:00,
2013-11-17 23:51:00,57.7,59.3,29.64,North,-999,-999.0,-999.0,105,0.00,,,0.00,tws,2013-11-18 04:51:00,
2013-11-17 23:56:00,57.8,59.2,29.64,North,-999,-999.0,-999.0,105,0.00,,,0.00,tws,2013-11-18 04:56:00,